createdAt,value
2023-03-11T00:06:30.492Z,5.80
2023-03-11T00:08:58.370Z,5.70
2023-03-11T00:11:26.242Z,5.70
2023-03-11T00:13:54.242Z,5.70
2023-03-11T00:16:22.098Z,5.70
2023-03-11T00:18:51.626Z,5.80
2023-03-11T00:21:20.395Z,5.70
2023-03-11T00:23:49.610Z,5.60
2023-03-11T00:26:17.449Z,5.70
2023-03-11T00:28:45.248Z,5.60
2023-03-11T00:31:13.900Z,5.60
2023-03-11T00:33:41.820Z,5.70
2023-03-11T00:36:22.364Z,5.80
2023-03-11T00:38:51.910Z,5.60
2023-03-11T00:41:19.774Z,5.70
2023-03-11T00:43:47.705Z,5.60
2023-03-11T00:46:15.556Z,5.60
2023-03-11T00:48:43.431Z,5.70
2023-03-11T00:51:14.797Z,5.70
2023-03-11T00:53:42.908Z,5.60
2023-03-11T00:56:14.144Z,5.60
2023-03-11T00:58:43.816Z,5.60
2023-03-11T01:01:13.369Z,5.60
2023-03-11T01:03:41.936Z,5.60
2023-03-11T11:05:46.430Z,5.10
2023-03-11T11:08:19.734Z,5.20
2023-03-11T11:10:52.215Z,5.30
2023-03-11T11:13:22.485Z,5.80
2023-03-11T11:16:00.314Z,5.60
2023-03-11T11:18:32.460Z,5.50
2023-03-11T11:21:07.358Z,5.50
2023-03-11T11:23:39.777Z,5.50
2023-03-11T11:26:14.801Z,5.40
2023-03-11T11:28:42.913Z,5.50
2023-03-11T11:31:23.235Z,5.60
2023-03-11T11:33:52.880Z,5.70
2023-03-11T11:36:25.119Z,5.70
2023-03-11T11:38:53.403Z,5.70
2023-03-11T11:41:23.304Z,5.80
2023-03-11T11:43:54.250Z,5.80
2023-03-11T11:46:30.141Z,5.90
2023-03-11T11:49:09.859Z,6.50
2023-03-11T11:51:42.975Z,6.00
2023-03-11T11:54:18.110Z,6.00
2023-03-11T11:56:49.819Z,6.10
2023-03-11T11:59:20.344Z,6.00
2023-03-11T12:02:05.122Z,5.90
2023-03-11T12:04:49.043Z,5.90
2023-03-11T12:07:33.225Z,5.90
2023-03-11T12:10:22.244Z,6.00
2023-03-11T12:13:14.317Z,6.10
2023-03-11T12:15:48.463Z,6.30
2023-03-11T12:18:20.954Z,6.30
2023-03-11T12:20:54.765Z,6.30
2023-03-11T12:23:38.840Z,6.30
2023-03-11T12:26:16.789Z,6.40
2023-03-11T12:28:49.859Z,6.30
2023-03-11T12:31:18.165Z,6.30
2023-03-11T12:33:51.112Z,6.40
2023-03-11T12:36:44.673Z,6.40
2023-03-11T12:39:40.522Z,6.50
2023-03-11T12:42:37.963Z,6.50
2023-03-11T12:45:42.291Z,6.60
2023-03-11T12:48:54.610Z,6.70
2023-03-11T12:52:02.078Z,6.60
2023-03-11T12:54:34.706Z,6.70
2023-03-11T12:57:06.113Z,6.70
2023-03-11T13:00:07.768Z,6.70
2023-03-11T13:03:04.246Z,6.90
2023-03-11T13:05:42.351Z,7.00
2023-03-11T13:08:15.524Z,7.10
2023-03-11T13:10:46.327Z,7.30
2023-03-11T13:13:37.052Z,7.40
2023-03-11T13:16:42.474Z,7.40
2023-03-11T13:19:38.592Z,7.40
2023-03-11T13:22:30.565Z,7.80
2023-03-11T17:05:11.555Z,7.90
2023-03-11T17:07:41.357Z,7.60
2023-03-11T17:10:10.900Z,7.60
2023-03-11T17:12:38.971Z,7.50
2023-03-11T17:15:08.435Z,7.50
2023-03-11T17:17:36.671Z,7.50
2023-03-11T17:20:06.273Z,7.40
2023-03-11T17:22:35.652Z,7.40
2023-03-11T17:25:03.930Z,7.40
2023-03-11T17:27:34.072Z,7.40
2023-03-11T17:30:03.128Z,7.30
2023-03-11T17:32:31.337Z,7.30
2023-03-11T17:34:59.216Z,7.30
2023-03-11T17:37:27.206Z,7.30
2023-03-11T17:39:56.363Z,7.30
2023-03-11T17:42:24.269Z,7.20
2023-03-11T17:44:56.795Z,7.20
2023-03-11T17:47:26.112Z,7.10
2023-03-11T17:49:54.178Z,7.10
2023-03-11T17:52:22.304Z,7.10
2023-03-11T17:54:50.253Z,7.10
2023-03-11T17:57:19.415Z,7.00
2023-03-11T17:59:50.913Z,7.00
2023-03-11T18:02:18.942Z,7.00
2023-03-11T18:04:52.012Z,6.90
2023-03-11T18:07:22.897Z,6.80
2023-03-11T18:09:52.783Z,6.90
2023-03-11T18:12:22.413Z,6.80
2023-03-11T18:14:50.223Z,6.80
2023-03-11T18:17:18.908Z,6.80
2023-03-11T18:19:46.704Z,6.70
2023-03-11T18:22:15.432Z,6.70
2023-03-11T18:24:43.252Z,6.70
2023-03-11T18:27:11.067Z,6.60
2023-03-11T18:29:40.293Z,6.60
2023-03-11T18:32:08.152Z,6.60
2023-03-11T18:34:36.042Z,6.60
2023-03-11T18:37:03.902Z,6.60
2023-03-11T18:39:31.853Z,6.50
2023-03-11T18:41:59.775Z,6.50
2023-03-11T18:44:27.849Z,6.50
2023-03-11T18:46:56.976Z,6.40
2023-03-11T18:49:24.784Z,6.40
2023-03-11T18:51:52.551Z,6.40
2023-03-11T18:54:20.349Z,6.40
2023-03-11T18:56:48.146Z,6.40
2023-03-11T18:59:15.963Z,6.30
2023-03-11T19:01:43.809Z,6.30
2023-03-11T19:04:12.972Z,6.30
2023-03-11T19:06:40.771Z,6.30
2023-03-11T19:09:10.881Z,6.20
2023-03-11T19:11:38.950Z,6.20
2023-03-11T19:14:06.763Z,6.20
2023-03-11T19:16:34.667Z,6.20
2023-03-11T19:19:02.549Z,6.20
2023-03-11T19:21:31.712Z,6.20
2023-03-11T19:24:00.219Z,6.20
2023-03-11T19:26:43.872Z,6.20
2023-03-11T19:29:13.517Z,6.20
2023-03-11T19:31:41.365Z,6.10
2023-03-11T19:34:09.230Z,6.10
2023-03-11T19:36:39.186Z,6.10
2023-03-11T19:39:07.263Z,6.20
2023-03-11T19:41:35.532Z,6.00
2023-03-11T19:44:04.184Z,6.20
2023-03-11T19:46:34.510Z,6.10
2023-03-11T19:49:02.804Z,6.10
2023-03-11T19:51:42.565Z,6.10
2023-03-11T19:54:16.348Z,6.10
2023-03-11T19:56:44.392Z,6.00
2023-03-11T19:59:12.295Z,6.00
2023-03-11T20:01:42.051Z,6.00
2023-03-11T20:04:10.664Z,5.90
2023-03-11T20:06:38.778Z,5.90
2023-03-11T20:09:13.113Z,5.90
2023-03-11T20:11:42.633Z,5.80
2023-03-11T20:14:14.173Z,5.90
2023-03-11T20:16:42.237Z,5.80
2023-03-11T20:19:10.273Z,5.80
2023-03-11T20:21:45.835Z,5.80
2023-03-11T20:24:14.167Z,5.80
2023-03-11T20:26:43.433Z,5.70
2023-03-11T20:29:11.498Z,5.70
2023-03-11T20:31:39.442Z,5.70
2023-03-11T20:34:07.363Z,5.70
2023-03-11T20:36:38.668Z,5.60
2023-03-11T20:39:10.095Z,5.40
2023-03-11T20:41:41.657Z,5.60
2023-03-11T20:44:16.757Z,5.50
2023-03-11T20:46:45.082Z,5.50
2023-03-11T20:49:12.981Z,5.50
2023-03-11T20:51:41.977Z,5.50
2023-03-11T20:54:10.025Z,5.50
2023-03-11T20:56:37.968Z,5.50
2023-03-11T20:59:07.531Z,5.40
2023-03-11T21:01:37.860Z,5.40
2023-03-11T21:04:06.134Z,5.30
2023-03-11T21:06:36.056Z,5.30
2023-03-11T21:09:06.876Z,5.30
2023-03-11T21:11:35.239Z,5.20
2023-03-11T21:14:03.584Z,5.30
2023-03-11T21:16:31.877Z,5.30
2023-03-11T21:19:05.293Z,5.20
2023-03-11T21:21:33.424Z,5.20
2023-03-11T21:24:01.901Z,5.20
2023-03-11T21:26:30.436Z,5.20
2023-03-11T21:28:58.322Z,5.10
2023-03-11T21:31:29.243Z,5.20
2023-03-11T21:33:59.088Z,5.20
2023-03-11T21:36:29.313Z,5.10
2023-03-11T21:38:57.273Z,5.10
2023-03-11T21:41:27.758Z,5.00
2023-03-11T21:43:57.110Z,5.10
2023-03-11T21:46:26.987Z,5.10
2023-03-11T21:48:55.524Z,5.10
2023-03-11T21:51:25.486Z,5.00
2023-03-11T21:53:54.824Z,5.00
2023-03-11T21:56:23.258Z,5.00
2023-03-11T21:58:51.272Z,4.90
2023-03-11T22:01:19.193Z,5.00
